Time;durP1;ratioP1;P1;durP2;ratioP2;P2;SDS_P1;SDS_P2;PMS_P1;PMS_P2;Temp;Humidity;BMP_temperature;BMP_pressure;BME280_temperature;BME280_humidity;BME280_pressure;Samples;Min_cycle;Max_cycle;Signal;HPM_P1;HPM_P2
2023/07/30 00:01:19;;;;;;;8.30;3.53;;;;;;;19.31;100.00;97200.09;5038336;28;20028;-74
2023/07/30 00:03:45;;;;;;;6.22;3.63;;;;;;;19.31;100.00;97197.38;5073072;28;20020;-73
2023/07/30 00:06:10;;;;;;;5.97;4.38;;;;;;;19.33;100.00;97198.06;5054914;28;20479;-73
2023/07/30 00:08:36;;;;;;;7.78;4.13;;;;;;;19.31;100.00;97200.97;5054902;28;20025;-73
2023/07/30 00:11:01;;;;;;;7.25;4.57;;;;;;;19.26;100.00;97199.69;5072928;28;20407;-73
2023/07/30 00:13:27;;;;;;;4.22;3.50;;;;;;;19.19;100.00;97206.78;5071967;28;20025;-74
2023/07/30 00:15:52;;;;;;;7.60;4.32;;;;;;;19.22;100.00;97201.91;5072601;28;20685;-73
2023/07/30 00:18:18;;;;;;;15.48;5.15;;;;;;;19.10;100.00;97194.16;5054770;28;20025;-73
2023/07/30 00:20:44;;;;;;;10.50;4.28;;;;;;;19.02;100.00;97203.06;5054758;28;20047;-73
2023/07/30 00:23:09;;;;;;;7.10;4.32;;;;;;;18.98;100.00;97207.09;5072556;28;20488;-73
2023/07/30 00:25:35;;;;;;;6.00;3.80;;;;;;;18.92;100.00;97203.13;5072646;28;20021;-73
2023/07/30 00:28:01;;;;;;;8.07;4.25;;;;;;;18.92;100.00;97202.28;5072889;28;20468;-74
2023/07/30 00:30:26;;;;;;;7.38;3.58;;;;;;;18.98;100.00;97198.13;5072666;28;20024;-74
2023/07/30 00:32:52;;;;;;;4.18;3.25;;;;;;;18.88;100.00;97185.50;5072508;28;20494;-74
2023/07/30 00:35:17;;;;;;;5.00;3.00;;;;;;;18.76;100.00;97200.28;5038003;28;20059;-73
2023/07/30 00:37:43;;;;;;;5.95;3.08;;;;;;;18.72;100.00;97192.59;5072089;28;20492;-74
2023/07/30 00:40:08;;;;;;;4.07;3.10;;;;;;;18.64;100.00;97195.25;5054448;28;20056;-74
2023/07/30 00:42:34;;;;;;;4.50;3.30;;;;;;;18.68;100.00;97192.06;5054452;28;20475;-74
2023/07/30 00:45:00;;;;;;;4.50;3.15;;;;;;;18.58;100.00;97195.88;5071778;28;20131;-74
2023/07/30 00:47:26;;;;;;;4.18;2.92;;;;;;;18.55;100.00;97197.00;5072327;28;20031;-73
2023/07/30 00:49:51;;;;;;;4.80;2.80;;;;;;;18.46;100.00;97192.47;5054073;28;20036;-74
2023/07/30 00:52:18;;;;;;;4.40;3.10;;;;;;;18.54;100.00;97200.72;5054220;28;20047;-73
2023/07/30 00:54:45;;;;;;;3.20;2.58;;;;;;;18.56;100.00;97200.56;5054074;28;20021;-73
2023/07/30 00:57:10;;;;;;;5.82;3.13;;;;;;;18.41;100.00;97192.06;5054016;28;20097;-74
2023/07/30 00:59:36;;;;;;;5.43;4.05;;;;;;;18.48;100.00;97205.88;5054062;28;20025;-73
2023/07/30 01:02:03;;;;;;;5.18;3.00;;;;;;;18.55;100.00;97199.72;5071857;28;20502;-73
2023/07/30 01:04:28;;;;;;;4.80;3.00;;;;;;;18.53;100.00;97196.31;5037460;28;20093;-73
2023/07/30 01:06:54;;;;;;;3.58;2.45;;;;;;;18.47;100.00;97196.88;5071632;28;20028;-74
2023/07/30 01:09:19;;;;;;;5.70;2.78;;;;;;;18.42;100.00;97196.50;5053726;28;20060;-74
2023/07/30 01:11:45;;;;;;;3.25;2.83;;;;;;;18.41;100.00;97201.06;5054069;28;20081;-74
2023/07/30 01:14:14;;;;;;;3.70;2.80;;;;;;;18.30;100.00;97195.00;5071345;28;20097;-74
2023/07/30 01:16:39;;;;;;;5.40;3.10;;;;;;;18.24;100.00;97192.91;5054154;28;20017;-74
2023/07/30 01:19:06;;;;;;;4.50;2.97;;;;;;;18.17;100.00;97197.22;5053697;28;20101;-74
2023/07/30 01:21:35;;;;;;;4.78;3.03;;;;;;;18.12;100.00;97196.81;5053684;28;20028;-74
2023/07/30 01:24:01;;;;;;;4.68;3.08;;;;;;;18.19;100.00;97198.75;5070305;28;20078;-73
2023/07/30 01:26:33;;;;;;;3.95;3.08;;;;;;;18.16;100.00;97200.91;5050970;28;20032;-74
2023/07/30 01:29:01;;;;;;;3.20;2.80;;;;;;;18.23;100.00;97196.59;5033598;28;20025;-74
2023/07/30 01:31:27;;;;;;;4.22;3.20;;;;;;;18.10;100.00;97201.50;5033520;28;20441;-74
2023/07/30 01:33:55;;;;;;;6.15;3.45;;;;;;;18.08;100.00;97195.41;5033525;28;20029;-74
2023/07/30 01:36:20;;;;;;;3.58;2.90;;;;;;;18.17;100.00;97197.22;5033230;28;20033;-74
2023/07/30 01:38:47;;;;;;;3.17;2.70;;;;;;;18.12;100.00;97189.53;5051825;28;20041;-74
2023/07/30 01:41:13;;;;;;;3.83;2.92;;;;;;;18.09;100.00;97194.41;5070917;28;20514;-74
2023/07/30 01:43:38;;;;;;;4.57;3.10;;;;;;;18.10;100.00;97204.22;5053180;28;20020;-74
2023/07/30 01:46:04;;;;;;;3.38;2.75;;;;;;;18.05;100.00;97203.81;5071274;28;20035;-74
2023/07/30 01:48:30;;;;;;;3.80;3.20;;;;;;;18.07;100.00;97208.09;5053079;28;20123;-74
2023/07/30 01:50:55;;;;;;;6.97;2.88;;;;;;;18.03;100.00;97212.06;5071155;28;20090;-74
2023/07/30 01:53:20;;;;;;;6.97;2.92;;;;;;;18.00;100.00;97204.25;5070666;28;20040;-74
2023/07/30 01:55:46;;;;;;;4.18;3.38;;;;;;;18.00;100.00;97215.09;5070877;28;20016;-74
2023/07/30 01:58:14;;;;;;;3.58;2.97;;;;;;;17.86;100.00;97219.16;5070752;28;20029;-74
2023/07/30 02:00:44;;;;;;;4.78;3.35;;;;;;;17.89;100.00;97209.88;5086368;28;20029;-74
2023/07/30 02:03:09;;;;;;;5.68;3.35;;;;;;;17.85;100.00;97212.03;5053115;28;20032;-73
2023/07/30 02:05:35;;;;;;;4.10;2.95;;;;;;;17.78;100.00;97202.78;5070574;28;20077;-73
2023/07/30 02:08:00;;;;;;;4.47;3.10;;;;;;;17.79;100.00;97209.91;5070868;28;20476;-73
2023/07/30 02:10:26;;;;;;;6.55;3.20;;;;;;;17.84;100.00;97206.78;5070363;28;20043;-74
2023/07/30 02:12:51;;;;;;;4.20;3.30;;;;;;;17.86;100.00;97216.44;5052608;28;20024;-73
2023/07/30 02:15:17;;;;;;;3.88;2.90;;;;;;;17.85;100.00;97209.31;5070493;28;20043;-73
2023/07/30 02:17:43;;;;;;;7.88;2.88;;;;;;;17.91;100.00;97218.69;5052781;28;20085;-73
2023/07/30 02:20:09;;;;;;;4.15;3.28;;;;;;;17.93;100.00;97211.28;5052866;28;20028;-74
2023/07/30 02:22:34;;;;;;;3.40;3.10;;;;;;;17.93;100.00;97211.28;5052551;28;20023;-74
2023/07/30 02:25:00;;;;;;;3.97;3.00;;;;;;;17.88;100.00;97211.72;5069274;28;20028;-74
2023/07/30 02:27:25;;;;;;;3.95;3.22;;;;;;;17.82;100.00;97211.47;5070255;28;20047;-74
2023/07/30 02:29:51;;;;;;;5.85;3.30;;;;;;;17.79;100.00;97220.72;5070403;28;20024;-74
2023/07/30 02:32:16;;;;;;;9.20;3.40;;;;;;;17.85;100.00;97228.25;5052343;28;20028;-74
2023/07/30 02:34:42;;;;;;;4.50;3.47;;;;;;;17.85;100.00;97216.56;5085669;28;20111;-73
2023/07/30 02:37:07;;;;;;;4.93;3.38;;;;;;;17.83;100.00;97232.97;5070283;28;20041;-74
2023/07/30 02:39:33;;;;;;;6.82;3.78;;;;;;;17.81;100.00;97232.25;5070217;28;20032;-74
2023/07/30 02:41:58;;;;;;;7.35;3.67;;;;;;;17.80;100.00;97233.28;5070327;28;20012;-74
2023/07/30 02:44:24;;;;;;;10.52;3.75;;;;;;;17.72;100.00;97235.84;5070112;28;20657;-75
2023/07/30 02:46:49;;;;;;;7.22;3.83;;;;;;;17.70;100.00;97239.69;5070387;28;20028;-75
2023/07/30 02:49:15;;;;;;;9.95;3.40;;;;;;;17.66;100.00;97238.28;5070317;28;20476;-75
2023/07/30 02:51:40;;;;;;;5.38;3.50;;;;;;;17.61;100.00;97233.31;5085632;28;20035;-74
2023/07/30 02:54:07;;;;;;;10.88;3.90;;;;;;;17.63;100.00;97239.41;5068819;28;20377;-74
2023/07/30 02:56:33;;;;;;;5.07;3.67;;;;;;;17.52;100.00;97233.31;5042819;28;20032;-75
2023/07/30 02:58:59;;;;;;;5.32;3.63;;;;;;;17.47;100.00;97246.41;5050990;28;20409;-75
2023/07/30 03:01:24;;;;;;;4.00;3.30;;;;;;;17.38;100.00;97237.28;5069833;28;20032;-75
2023/07/30 03:03:50;;;;;;;6.45;3.28;;;;;;;17.32;100.00;97237.88;5052360;28;20031;-75
2023/07/30 03:06:16;;;;;;;3.60;3.00;;;;;;;17.32;100.00;97233.31;5035379;28;20028;-75
2023/07/30 03:08:45;;;;;;;7.30;3.20;;;;;;;17.35;100.00;97237.59;5068751;28;20070;-75
2023/07/30 03:11:10;;;;;;;4.90;3.22;;;;;;;17.29;100.00;97235.47;5085567;28;20072;-74
2023/07/30 03:13:36;;;;;;;4.35;3.17;;;;;;;17.33;100.00;97245.00;5052057;28;20123;-75
2023/07/30 03:16:01;;;;;;;4.80;3.45;;;;;;;17.37;100.00;97249.13;5070124;28;20020;-75
2023/07/30 03:18:27;;;;;;;9.00;3.30;;;;;;;17.40;100.00;97238.03;5052092;28;20029;-75
2023/07/30 03:21:00;;;;;;;6.78;3.50;;;;;;;17.40;100.00;97245.28;5052211;28;20040;-75
2023/07/30 03:23:27;;;;;;;4.28;3.28;;;;;;;17.28;100.00;97239.19;5051406;28;20024;-75
2023/07/30 03:25:52;;;;;;;8.10;3.30;;;;;;;17.28;100.00;97236.47;5051914;28;20021;-75
2023/07/30 03:28:18;;;;;;;6.65;3.15;;;;;;;17.16;100.00;97235.78;5051967;28;20468;-75
2023/07/30 03:30:43;;;;;;;6.68;3.40;;;;;;;17.23;100.00;97246.84;5070040;28;20024;-75
2023/07/30 03:33:09;;;;;;;4.40;3.50;;;;;;;17.18;100.00;97243.72;5070175;28;20032;-75
2023/07/30 03:35:34;;;;;;;6.57;3.45;;;;;;;17.13;100.00;97255.00;5052196;28;20024;-76
2023/07/30 03:38:00;;;;;;;6.82;4.00;;;;;;;17.17;100.00;97253.69;5057360;28;20128;-75
2023/07/30 03:40:25;;;;;;;5.03;3.70;;;;;;;17.18;100.00;97246.44;5032021;28;20537;-76
2023/07/30 03:42:51;;;;;;;6.22;3.40;;;;;;;17.22;100.00;97253.28;5031957;28;20087;-75
2023/07/30 03:45:16;;;;;;;4.95;3.08;;;;;;;17.26;100.00;97251.97;5049837;28;20037;-75
2023/07/30 03:47:42;;;;;;;7.10;3.40;;;;;;;17.24;100.00;97248.56;5033347;28;20101;-75
2023/07/30 03:50:08;;;;;;;6.43;3.50;;;;;;;17.25;100.00;97250.28;5053392;28;20037;-75
2023/07/30 03:52:33;;;;;;;4.30;3.08;;;;;;;17.21;100.00;97238.03;5035196;28;20096;-75
2023/07/30 03:54:59;;;;;;;4.93;3.40;;;;;;;17.24;100.00;97241.31;5035318;28;20020;-75
2023/07/30 03:57:24;;;;;;;7.20;3.40;;;;;;;17.28;100.00;97247.28;5035268;28;20100;-75
2023/07/30 03:59:50;;;;;;;6.30;3.45;;;;;;;17.21;100.00;97243.44;5035583;28;20025;-76
2023/07/30 04:02:15;;;;;;;7.60;3.63;;;;;;;17.34;100.00;97254.81;5052891;28;20576;-76
2023/07/30 04:04:43;;;;;;;5.35;3.33;;;;;;;17.48;100.00;97258.91;5053096;28;20021;-76
2023/07/30 04:07:09;;;;;;;8.05;3.38;;;;;;;17.49;100.00;97258.78;5018710;28;20341;-76
2023/07/30 04:09:34;;;;;;;9.05;4.20;;;;;;;17.60;100.00;97257.78;5052839;28;20033;-76
2023/07/30 04:12:00;;;;;;;4.47;3.47;;;;;;;17.64;100.00;97253.81;5052781;28;20021;-76
2023/07/30 04:14:25;;;;;;;7.47;4.40;;;;;;;17.72;100.00;97246.66;5035017;28;20052;-76
2023/07/30 04:16:51;;;;;;;3.88;3.38;;;;;;;17.88;100.00;97263.13;5052927;28;20024;-76
2023/07/30 04:19:16;;;;;;;6.75;3.35;;;;;;;17.95;100.00;97257.13;5034793;28;20523;-76
2023/07/30 04:21:42;;;;;;;5.68;3.72;;;;;;;17.95;100.00;97254.44;5052648;28;20397;-75
2023/07/30 04:24:07;;;;;;;6.47;3.78;;;;;;;17.99;100.00;97254.00;5051265;28;20053;-75
2023/07/30 04:26:33;;;;;;;7.13;4.03;;;;;;;18.12;100.00;97259.09;5034796;28;20024;-75
2023/07/30 04:29:15;;;;;;;4.72;3.65;;;;;;;18.21;100.00;97260.91;5052411;28;20467;-75
2023/07/30 04:31:40;;;;;;;6.63;4.07;;;;;;;18.30;100.00;97254.59;5067461;28;20496;-75
2023/07/30 04:34:06;;;;;;;6.10;3.40;;;;;;;18.83;100.00;97260.13;5052663;28;20051;-75
2023/07/30 04:36:31;;;;;;;7.30;3.78;;;;;;;19.97;100.00;97246.53;5051882;28;20124;-74
2023/07/30 04:38:57;;;;;;;14.52;3.30;;;;;;;21.22;100.00;97233.97;5054348;28;20060;-75
2023/07/30 04:41:22;;;;;;;21.23;3.65;;;;;;;21.43;100.00;97237.06;5072494;28;20028;-79
2023/07/30 04:43:48;;;;;;;9.30;3.53;;;;;;;20.89;100.00;97242.03;5072622;28;20051;-76
2023/07/30 04:46:13;;;;;;;12.05;3.88;;;;;;;20.33;100.00;97255.44;5072166;28;20111;-75
2023/07/30 04:48:38;;;;;;;6.55;3.53;;;;;;;19.97;100.00;97246.53;5072142;28;20027;-76
2023/07/30 04:51:04;;;;;;;15.73;6.05;;;;;;;19.71;100.00;97243.84;5072074;28;20036;-75
2023/07/30 04:53:29;;;;;;;10.07;4.03;;;;;;;19.60;100.00;97246.81;5054212;28;20033;-75
2023/07/30 04:55:56;;;;;;;8.18;3.65;;;;;;;19.60;100.00;97244.09;5072193;28;20480;-75
2023/07/30 04:58:22;;;;;;;8.90;3.50;;;;;;;19.52;100.00;97241.31;5071587;28;20032;-75
2023/07/30 05:00:48;;;;;;;6.85;3.20;;;;;;;19.50;100.00;97237.94;5054047;28;20024;-83
2023/07/30 05:03:14;;;;;;;7.07;4.25;;;;;;;19.62;100.00;97247.53;5038225;28;20042;-76
2023/07/30 05:05:40;;;;;;;13.30;3.95;;;;;;;19.67;100.00;97255.16;5053835;28;20052;-76
2023/07/30 05:08:06;;;;;;;6.50;3.22;;;;;;;19.64;100.00;97241.91;5037504;28;20035;-75
2023/07/30 05:10:31;;;;;;;4.15;3.30;;;;;;;19.72;100.00;97237.41;5071609;28;20024;-75
2023/07/30 05:12:57;;;;;;;7.88;3.88;;;;;;;19.85;100.00;97237.81;5071975;28;20043;-76
2023/07/30 05:15:22;;;;;;;6.70;3.53;;;;;;;19.96;100.00;97251.13;5053661;28;20112;-76
2023/07/30 05:17:48;;;;;;;6.88;4.47;;;;;;;20.02;100.00;97245.06;5053812;28;20031;-75
2023/07/30 05:20:13;;;;;;;5.38;3.70;;;;;;;20.19;100.00;97242.44;5071542;28;20032;-74
2023/07/30 05:22:39;;;;;;;7.97;5.45;;;;;;;20.36;100.00;97244.25;5053507;28;20028;-73
2023/07/30 05:25:05;;;;;;;8.07;4.70;;;;;;;20.40;100.00;97245.63;5053681;28;20115;-74
2023/07/30 05:27:31;;;;;;;6.10;4.60;;;;;;;20.48;100.00;97240.22;5053430;28;20067;-73
2023/07/30 05:29:57;;;;;;;9.90;7.25;;;;;;;20.97;100.00;97236.63;5071392;28;20078;-73
2023/07/30 05:32:23;;;;;;;5.25;3.72;;;;;;;22.62;100.00;97236.97;5071592;28;20056;-79
2023/07/30 05:34:48;;;;;;;21.20;13.60;;;;;;;24.27;100.00;97225.31;5070861;28;20031;-75
2023/07/30 05:37:14;;;;;;;4.22;3.70;;;;;;;24.94;100.00;97216.16;5054967;28;20044;-77
2023/07/30 05:39:39;;;;;;;15.85;3.30;;;;;;;25.89;100.00;97214.81;5087187;28;20064;-76
2023/07/30 05:42:05;;;;;;;7.78;3.53;;;;;;;26.72;100.00;97216.63;5071409;28;20070;-78
2023/07/30 05:44:30;;;;;;;8.85;4.40;;;;;;;27.30;96.38;97212.41;5071514;28;20407;-77
2023/07/30 05:46:56;;;;;;;4.55;3.25;;;;;;;28.68;86.77;97207.78;5053662;28;20029;-77
2023/07/30 05:49:21;;;;;;;3.92;3.03;;;;;;;29.27;80.30;97201.19;5073956;28;20449;-78
2023/07/30 05:51:47;;;;;;;4.45;3.13;;;;;;;29.84;73.57;97200.19;5068291;28;20061;-77
2023/07/30 05:54:13;;;;;;;4.32;3.30;;;;;;;30.39;71.77;97213.09;5050830;28;20033;-79
2023/07/30 05:56:38;;;;;;;7.30;3.30;;;;;;;31.02;65.00;97201.75;5068295;28;20032;-80
2023/07/30 05:59:04;;;;;;;6.68;3.10;;;;;;;31.53;62.75;97196.59;5034280;28;20036;-77
2023/07/30 06:01:29;;;;;;;6.90;3.15;;;;;;;31.98;58.74;97190.56;5050937;28;20029;-79
2023/07/30 06:03:55;;;;;;;4.03;3.33;;;;;;;32.43;55.45;97183.38;5050016;28;20060;-77
2023/07/30 06:06:26;;;;;;;4.65;2.70;;;;;;;32.36;56.86;97195.69;5068229;28;20067;-81
2023/07/30 06:08:53;;;;;;;4.78;3.08;;;;;;;33.30;52.71;97186.97;5068491;28;20472;-76
2023/07/30 06:11:18;;;;;;;5.32;3.30;;;;;;;34.28;49.68;97186.56;5068099;28;20514;-77
2023/07/30 06:13:43;;;;;;;5.68;3.55;;;;;;;34.66;47.88;97183.84;5069107;28;20069;-78
2023/07/30 06:16:09;;;;;;;15.85;4.10;;;;;;;34.14;48.56;97186.06;5051416;28;20021;-81
2023/07/30 06:18:35;;;;;;;12.20;5.50;;;;;;;33.86;47.68;97174.16;5049892;28;20028;-74
2023/07/30 06:21:01;;;;;;;7.32;3.78;;;;;;;32.31;52.34;97188.06;5050082;28;20033;-76
2023/07/30 06:23:26;;;;;;;11.00;4.75;;;;;;;33.15;50.36;97184.75;5049916;28;20476;-76
2023/07/30 06:25:52;;;;;;;14.63;4.45;;;;;;;33.22;50.11;97176.28;5067531;28;20104;-74
2023/07/30 06:28:17;;;;;;;6.38;4.22;;;;;;;33.17;49.11;97181.72;5049337;28;20094;-77
2023/07/30 06:30:43;;;;;;;18.25;4.15;;;;;;;32.72;50.77;97181.56;5049939;28;20042;-76
2023/07/30 06:33:08;;;;;;;40.60;5.45;;;;;;;33.67;49.54;97174.41;5049132;28;20029;-76
2023/07/30 06:35:34;;;;;;;25.58;4.70;;;;;;;34.72;46.36;97176.41;5068167;28;20025;-76
2023/07/30 06:37:59;;;;;;;8.95;3.97;;;;;;;34.46;47.03;97168.75;5067675;28;20092;-80
2023/07/30 06:40:25;;;;;;;21.75;4.10;;;;;;;34.40;46.62;97161.44;5067503;28;20028;-81
2023/07/30 06:42:50;;;;;;;28.95;18.95;;;;;;;34.38;46.55;97170.03;5049609;28;20052;-81
2023/07/30 06:45:16;;;;;;;6.63;3.75;;;;;;;34.76;45.54;97161.72;5067771;28;20403;-81
2023/07/30 06:47:41;;;;;;;4.63;3.30;;;;;;;34.78;44.77;97159.53;5067504;28;20023;-83
2023/07/30 06:50:10;;;;;;;5.32;3.80;;;;;;;34.63;44.52;97156.56;5067298;28;20036;-81
2023/07/30 06:52:36;;;;;;;4.95;3.83;;;;;;;34.29;45.25;97154.91;5050042;28;20078;-82
2023/07/30 06:55:02;;;;;;;8.25;5.93;;;;;;;34.82;44.14;97148.75;5049202;28;20028;-82
2023/07/30 06:57:29;;;;;;;6.80;4.13;;;;;;;36.02;42.48;97153.13;5049571;28;20506;-82
2023/07/30 06:59:55;;;;;;;10.52;3.50;;;;;;;36.54;40.72;97144.94;5049330;28;20095;-81
2023/07/30 07:02:20;;;;;;;19.40;4.53;;;;;;;35.82;41.00;97137.09;5067863;28;20556;-81
2023/07/30 07:04:46;;;;;;;6.03;3.60;;;;;;;35.33;41.89;97144.66;5067769;28;20035;-82
2023/07/30 07:07:11;;;;;;;19.75;6.65;;;;;;;36.25;41.18;97136.91;5049174;28;20115;-80
2023/07/30 07:09:37;;;;;;;25.33;4.50;;;;;;;36.51;39.82;97135.13;5049672;28;20036;-81
2023/07/30 07:12:03;;;;;;;5.68;3.47;;;;;;;35.31;40.87;97136.56;5067084;28;20536;-82
2023/07/30 07:14:28;;;;;;;12.25;3.50;;;;;;;34.78;42.39;97137.28;5049262;28;20039;-81
2023/07/30 07:16:57;;;;;;;7.35;3.15;;;;;;;34.59;42.31;97138.72;5067028;28;20031;-80
2023/07/30 07:19:23;;;;;;;18.67;3.97;;;;;;;34.84;42.56;97136.25;5067299;28;20103;-81
2023/07/30 07:21:48;;;;;;;3.50;3.20;;;;;;;35.18;41.52;97131.41;5051157;28;20107;-81
2023/07/30 07:24:14;;;;;;;5.93;3.65;;;;;;;36.01;40.15;97124.44;5053377;28;20036;-82
2023/07/30 07:26:39;;;;;;;8.27;3.95;;;;;;;37.13;38.68;97115.66;5036408;28;20043;-82
2023/07/30 07:29:05;;;;;;;6.03;3.53;;;;;;;37.99;37.49;97113.88;5053172;28;20094;-81
2023/07/30 07:31:31;;;;;;;10.48;3.92;;;;;;;38.43;36.46;97107.69;5071102;28;20417;-81
2023/07/30 07:33:57;;;;;;;10.80;3.45;;;;;;;38.62;36.29;97111.56;5053128;28;20024;-81
2023/07/30 07:36:22;;;;;;;7.10;3.30;;;;;;;38.84;35.14;97102.84;5036317;28;20020;-81
2023/07/30 07:38:48;;;;;;;6.90;2.78;;;;;;;39.54;34.15;97093.25;5086241;28;20123;-82
2023/07/30 07:41:17;;;;;;;5.40;3.17;;;;;;;39.01;34.23;97090.16;5070613;28;20108;-82
2023/07/30 07:43:43;;;;;;;7.22;4.13;;;;;;;38.61;34.94;97093.09;5052967;28;20442;-79
2023/07/30 07:46:13;;;;;;;7.43;3.28;;;;;;;39.39;34.21;97083.00;5052564;28;20071;-79
2023/07/30 07:48:40;;;;;;;5.40;4.20;;;;;;;40.77;32.45;97086.25;5070938;28;20086;-78
2023/07/30 07:51:06;;;;;;;4.32;3.60;;;;;;;40.96;32.13;97073.97;5052723;28;20118;-78
2023/07/30 07:53:31;;;;;;;3.70;3.30;;;;;;;41.90;31.22;97082.47;5070460;28;20135;-78
2023/07/30 07:55:57;;;;;;;8.35;5.38;;;;;;;40.95;31.96;97082.69;5086210;28;20099;-78
2023/07/30 07:58:22;;;;;;;5.22;3.67;;;;;;;40.48;32.09;97066.66;5070186;28;20025;-78
2023/07/30 08:00:48;;;;;;;3.47;3.17;;;;;;;40.25;32.18;97061.84;5085957;28;20036;-78
2023/07/30 08:03:13;;;;;;;8.20;2.80;;;;;;;39.91;32.84;97065.53;5070075;28;20102;-79
2023/07/30 08:05:39;;;;;;;3.22;2.72;;;;;;;41.26;30.89;97060.63;5069907;28;20055;-79
2023/07/30 08:08:04;;;;;;;6.00;2.92;;;;;;;42.40;29.32;97064.69;5070321;28;20115;-79
2023/07/30 08:10:30;;;;;;;3.58;2.90;;;;;;;42.85;29.15;97060.16;5070073;28;20541;-78
2023/07/30 08:12:55;;;;;;;5.72;2.83;;;;;;;41.20;30.15;97050.63;5035971;28;20021;-77
2023/07/30 08:15:21;;;;;;;5.03;3.10;;;;;;;41.48;30.62;97052.47;5069897;28;20055;-77
2023/07/30 08:17:46;;;;;;;4.22;3.00;;;;;;;40.73;31.86;97057.97;5052146;28;20203;-78
2023/07/30 08:20:12;;;;;;;6.03;3.95;;;;;;;40.24;32.00;97046.19;5085617;28;20470;-78
2023/07/30 08:22:37;;;;;;;3.13;2.60;;;;;;;39.50;32.94;97034.16;5069856;28;20036;-77
2023/07/30 08:25:04;;;;;;;4.28;3.17;;;;;;;40.76;32.21;97051.78;5052028;28;20050;-78
2023/07/30 08:27:30;;;;;;;7.15;3.85;;;;;;;42.33;29.22;97038.13;5051579;28;20028;-77
2023/07/30 08:29:55;;;;;;;6.97;3.33;;;;;;;43.28;28.47;97038.13;5051945;28;20036;-79
2023/07/30 08:32:21;;;;;;;9.95;3.33;;;;;;;43.63;27.67;97031.63;5035084;28;20097;-78
2023/07/30 08:34:47;;;;;;;4.53;3.50;;;;;;;43.45;27.99;97029.84;5051454;28;20028;-78
2023/07/30 08:37:12;;;;;;;4.28;2.92;;;;;;;43.12;28.17;97026.38;5069824;28;20052;-79
2023/07/30 08:39:38;;;;;;;6.80;4.40;;;;;;;42.65;29.18;97026.81;5070025;28;20032;-79
2023/07/30 08:42:04;;;;;;;5.40;2.85;;;;;;;43.50;28.14;97023.25;5069927;28;20012;-78
2023/07/30 08:44:29;;;;;;;6.00;3.53;;;;;;;43.50;27.95;97014.81;5051425;28;20052;-77
2023/07/30 08:46:54;;;;;;;4.45;3.00;;;;;;;41.93;28.51;97014.38;5051513;28;20033;-78
2023/07/30 08:49:20;;;;;;;2.92;2.45;;;;;;;41.48;28.33;97008.38;5084919;28;20037;-78
2023/07/30 08:51:48;;;;;;;3.33;2.70;;;;;;;42.39;28.13;97015.22;5069423;28;20077;-78
2023/07/30 08:54:14;;;;;;;3.22;2.67;;;;;;;43.92;26.76;97011.47;5034802;28;20116;-78
2023/07/30 08:56:39;;;;;;;8.52;3.67;;;;;;;44.72;25.76;97007.59;5034692;28;20116;-78
2023/07/30 08:59:05;;;;;;;8.90;3.70;;;;;;;45.30;25.47;97012.09;5051321;28;20032;-78
2023/07/30 09:01:35;;;;;;;2.83;2.60;;;;;;;44.91;25.79;97015.78;5051415;28;20036;-79
2023/07/30 09:04:00;;;;;;;5.60;3.20;;;;;;;43.80;26.09;97004.75;5051318;28;20131;-78
2023/07/30 09:06:26;;;;;;;8.30;3.40;;;;;;;43.39;26.19;97002.09;5069143;28;20120;-80
2023/07/30 09:08:52;;;;;;;6.32;3.28;;;;;;;44.10;25.10;96995.47;5051099;28;20028;-78
2023/07/30 09:11:18;;;;;;;3.72;2.90;;;;;;;45.04;23.20;96993.06;5051299;28;20032;-79
2023/07/30 09:13:44;;;;;;;6.32;3.70;;;;;;;45.43;23.39;96983.66;5050972;28;20108;-79
2023/07/30 09:16:14;;;;;;;6.22;3.38;;;;;;;45.65;23.37;96988.31;5051167;28;20020;-79
2023/07/30 09:18:44;;;;;;;4.28;3.50;;;;;;;44.82;23.45;96979.06;5034327;28;20021;-79
2023/07/30 09:21:11;;;;;;;14.73;3.88;;;;;;;45.50;22.57;96983.97;5034638;28;20055;-79
2023/07/30 09:23:44;;;;;;;3.85;3.45;;;;;;;45.82;22.21;96982.66;5034300;28;20436;-79
2023/07/30 09:26:10;;;;;;;9.15;3.28;;;;;;;45.28;22.21;96981.31;5068581;28;20028;-78
2023/07/30 09:28:36;;;;;;;4.57;3.30;;;;;;;45.44;21.26;96961.88;5050900;28;20538;-79
2023/07/30 09:31:03;;;;;;;6.43;3.00;;;;;;;45.02;21.90;96958.69;5068837;28;20506;-78
2023/07/30 09:33:28;;;;;;;3.17;2.83;;;;;;;43.42;23.11;96962.00;5034164;28;20404;-78
2023/07/30 09:35:55;;;;;;;5.25;2.63;;;;;;;44.31;22.67;96961.91;5068177;28;20480;-79
2023/07/30 09:38:21;;;;;;;8.60;3.85;;;;;;;44.90;22.11;96958.47;5053491;28;20450;-78
2023/07/30 09:40:49;;;;;;;3.45;3.10;;;;;;;44.73;23.06;96964.09;5030294;28;20098;-77
2023/07/30 09:43:15;;;;;;;4.03;3.17;;;;;;;44.93;22.46;96957.84;5031422;28;20047;-78
2023/07/30 09:45:45;;;;;;;6.10;2.90;;;;;;;46.37;21.91;96965.69;5029598;28;20021;-78
2023/07/30 09:48:11;;;;;;;3.40;3.10;;;;;;;47.43;21.42;96944.56;5014184;28;20017;-78
2023/07/30 09:50:37;;;;;;;4.53;3.75;;;;;;;46.60;21.44;96957.78;5029786;28;20408;-77
2023/07/30 09:53:03;;;;;;;8.27;3.97;;;;;;;46.51;21.54;96960.66;5050904;28;20125;-80
2023/07/30 09:55:29;;;;;;;3.78;3.40;;;;;;;46.37;21.94;96950.69;5050253;28;20063;-79
2023/07/30 09:57:55;;;;;;;3.08;2.88;;;;;;;47.38;20.59;96939.09;5032960;28;20024;-78
2023/07/30 10:00:20;;;;;;;5.90;3.20;;;;;;;46.17;21.99;96947.47;5050901;28;20029;-79
2023/07/30 10:02:47;;;;;;;3.55;3.22;;;;;;;47.84;20.93;96940.84;5033050;28;20056;-79
2023/07/30 10:05:18;;;;;;;6.40;3.13;;;;;;;47.99;20.72;96937.38;5032978;28;20032;-79
2023/07/30 10:07:55;;;;;;;11.63;3.65;;;;;;;47.82;21.51;96937.53;5032950;28;20029;-80
2023/07/30 10:10:22;;;;;;;4.70;3.45;;;;;;;48.97;20.47;96933.44;5016530;28;20024;-80
2023/07/30 10:12:47;;;;;;;5.75;3.53;;;;;;;48.49;20.63;96924.91;5033009;28;20016;-80
2023/07/30 10:15:15;;;;;;;19.42;3.38;;;;;;;48.26;20.87;96925.38;5050692;28;20037;-78
2023/07/30 10:17:41;;;;;;;4.40;3.47;;;;;;;48.69;20.60;96923.97;5032921;28;20021;-80
2023/07/30 10:20:31;;;;;;;5.78;3.20;;;;;;;49.29;20.53;96926.75;5050399;28;20207;-80
2023/07/30 10:23:00;;;;;;;3.75;3.35;;;;;;;47.74;21.17;96916.59;5050693;28;20040;-77
2023/07/30 10:25:48;;;;;;;7.07;3.75;;;;;;;48.03;21.22;96920.44;5051986;28;20044;-80
2023/07/30 10:28:33;;;;;;;3.20;2.90;;;;;;;47.90;21.05;96915.94;5032900;28;20507;-79
2023/07/30 10:31:00;;;;;;;3.90;3.50;;;;;;;47.62;21.42;96908.03;5032557;28;20515;-77
2023/07/30 10:33:46;;;;;;;5.63;3.45;;;;;;;48.47;21.31;96915.91;5050527;28;20040;-78
2023/07/30 10:36:11;;;;;;;3.55;3.25;;;;;;;48.45;21.01;96904.91;5050198;28;20029;-79
2023/07/30 10:38:37;;;;;;;4.75;3.40;;;;;;;47.08;22.33;96903.47;5049574;28;20113;-79
2023/07/30 10:41:14;;;;;;;7.80;3.78;;;;;;;47.38;21.71;96901.41;5052266;28;20021;-79
2023/07/30 10:43:40;;;;;;;7.88;3.25;;;;;;;47.03;21.96;96896.03;5053136;28;20027;-80
2023/07/30 10:46:10;;;;;;;3.85;3.42;;;;;;;46.75;21.63;96897.72;5052114;28;20047;-78
2023/07/30 10:48:40;;;;;;;5.38;3.20;;;;;;;46.10;22.17;96895.38;5052557;28;20490;-79
2023/07/30 10:51:08;;;;;;;7.82;3.13;;;;;;;45.20;23.39;96881.22;5070245;28;20028;-79
2023/07/30 10:53:36;;;;;;;6.30;3.38;;;;;;;45.98;22.52;96878.25;5052655;28;20064;-80
2023/07/30 10:56:03;;;;;;;3.78;3.22;;;;;;;47.47;21.74;96882.31;5053163;28;20056;-80
2023/07/30 10:58:33;;;;;;;7.25;3.83;;;;;;;48.08;20.78;96869.97;5056799;28;20085;-81
2023/07/30 11:01:02;;;;;;;3.72;3.42;;;;;;;45.98;22.85;96866.94;5056183;28;20381;-79
2023/07/30 11:03:28;;;;;;;7.18;3.42;;;;;;;47.95;21.98;96873.13;5056544;28;20028;-79
2023/07/30 11:05:54;;;;;;;3.60;3.22;;;;;;;45.68;22.79;96877.38;5039392;28;20169;-80
2023/07/30 11:08:33;;;;;;;5.35;3.30;;;;;;;46.60;22.76;96870.81;5056503;28;20036;-79
2023/07/30 11:10:58;;;;;;;4.70;3.63;;;;;;;46.30;22.75;96864.31;5056238;28;20036;-79
2023/07/30 11:13:24;;;;;;;5.90;3.25;;;;;;;46.02;22.59;96856.63;5074345;28;20039;-79
2023/07/30 11:15:49;;;;;;;3.55;3.25;;;;;;;45.19;23.13;96848.47;5056224;28;20028;-78
2023/07/30 11:18:15;;;;;;;3.75;3.25;;;;;;;45.44;23.20;96854.47;5074195;28;20418;-78
2023/07/30 11:20:41;;;;;;;3.53;3.22;;;;;;;45.15;23.70;96843.84;5089315;28;20033;-79
2023/07/30 11:23:19;;;;;;;3.65;3.28;;;;;;;46.05;23.33;96848.31;5089377;28;20032;-79
2023/07/30 11:25:51;;;;;;;3.60;3.08;;;;;;;46.12;22.59;96839.25;5073750;28;20483;-79